createdAt,value
2023-04-11T00:01:07.424Z,8.60
2023-04-11T00:03:36.441Z,8.70
2023-04-11T00:06:04.932Z,8.70
2023-04-11T00:08:32.101Z,8.60
2023-04-11T00:10:59.325Z,8.60
2023-04-11T00:13:26.953Z,8.60
2023-04-11T00:15:55.664Z,8.60
2023-04-11T00:18:25.375Z,8.60
2023-04-11T00:20:52.565Z,8.60
2023-04-11T00:23:19.869Z,8.60
2023-04-11T00:25:47.640Z,8.60
2023-04-11T00:28:14.797Z,8.60
2023-04-11T00:30:42.024Z,8.60
2023-04-11T00:33:09.232Z,8.60
2023-04-11T00:35:39.848Z,8.60
2023-04-11T00:38:07.882Z,8.60
2023-04-11T00:40:35.367Z,8.50
2023-04-11T00:43:03.581Z,8.50
2023-04-11T00:45:31.039Z,8.50
2023-04-11T00:47:58.402Z,8.50
2023-04-11T00:50:25.929Z,8.50
2023-04-11T00:52:55.210Z,8.50
2023-04-11T00:55:22.595Z,8.50
2023-04-11T00:57:54.305Z,8.50
2023-04-11T01:00:22.995Z,8.50
2023-04-11T01:02:50.433Z,8.50
2023-04-11T01:05:20.042Z,8.50
2023-04-11T01:07:50.993Z,8.50
2023-04-11T01:10:19.455Z,8.50
2023-04-11T01:12:47.104Z,8.50
2023-04-11T01:15:14.828Z,8.40
2023-04-11T01:17:42.519Z,8.40
2023-04-11T01:20:12.822Z,8.50
2023-04-11T01:22:42.072Z,8.50
2023-04-11T01:25:09.768Z,8.50
2023-04-11T01:27:37.978Z,8.50
2023-04-11T01:30:06.839Z,8.50
2023-04-11T01:32:35.142Z,8.40
2023-04-11T01:35:04.051Z,8.50
2023-04-11T01:37:31.579Z,8.40
2023-04-11T01:39:59.548Z,8.40
2023-04-11T01:42:29.305Z,8.30
2023-04-11T01:44:57.360Z,8.30
2023-04-11T01:47:24.619Z,8.30
2023-04-11T01:49:54.225Z,8.30
2023-04-11T01:52:21.487Z,8.20
2023-04-11T01:54:48.715Z,8.10
2023-04-11T01:57:16.081Z,8.20
2023-04-11T01:59:43.324Z,8.20
2023-04-11T02:02:10.774Z,8.30
2023-04-11T02:04:39.074Z,8.30
2023-04-11T02:07:07.205Z,8.30
2023-04-11T02:09:34.390Z,8.30
2023-04-11T02:12:01.679Z,8.30
2023-04-11T02:14:40.758Z,8.30
2023-04-11T02:17:09.827Z,8.30
2023-04-11T02:19:38.113Z,8.20
2023-04-11T02:22:05.551Z,8.20
2023-04-11T02:24:32.725Z,8.20
2023-04-11T02:27:01.569Z,8.30
2023-04-11T02:29:29.016Z,8.30
2023-04-11T02:31:56.466Z,8.30
2023-04-11T02:34:24.713Z,8.30
2023-04-11T02:36:52.939Z,8.30
2023-04-11T02:39:23.850Z,8.30
2023-04-11T02:41:51.296Z,8.40
2023-04-11T02:44:19.212Z,8.40
2023-04-11T02:46:47.945Z,8.10
2023-04-11T02:49:15.256Z,7.90
2023-04-11T02:51:43.514Z,7.70
2023-04-11T02:54:11.829Z,7.50
2023-04-11T02:56:39.246Z,7.30
2023-04-11T02:59:07.154Z,7.20
2023-04-11T03:01:37.463Z,7.00
2023-04-11T03:04:05.567Z,7.00
2023-04-11T03:06:44.804Z,6.90
2023-04-11T03:09:12.656Z,6.90
2023-04-11T03:11:40.145Z,6.90
2023-04-11T03:14:07.812Z,6.80
2023-04-11T03:16:35.049Z,6.70
2023-04-11T03:19:02.417Z,6.70
2023-04-11T03:21:31.502Z,6.70
2023-04-11T03:24:00.456Z,6.60
2023-04-11T03:26:27.714Z,6.60
2023-04-11T03:28:59.275Z,6.60
2023-04-11T03:31:30.819Z,6.60
2023-04-11T03:33:59.529Z,6.60
2023-04-11T03:36:27.169Z,6.60
2023-04-11T03:38:54.831Z,6.60
2023-04-11T03:41:23.011Z,6.50
2023-04-11T03:43:52.013Z,6.50
2023-04-11T03:46:21.716Z,6.50
2023-04-11T03:48:49.041Z,6.40
2023-04-11T03:51:18.957Z,6.40
2023-04-11T03:53:56.164Z,6.30
2023-04-11T03:56:28.729Z,6.30
2023-04-11T03:58:56.129Z,6.30
2023-04-11T04:01:27.157Z,6.30
2023-04-11T04:04:01.138Z,6.20
2023-04-11T04:06:29.903Z,6.20
2023-04-11T04:08:59.872Z,6.20
2023-04-11T04:11:31.036Z,6.20
2023-04-11T04:13:58.602Z,6.10
2023-04-11T04:16:26.004Z,6.10
2023-04-11T04:18:58.381Z,6.00
2023-04-11T04:21:26.651Z,6.00
2023-04-11T04:23:57.510Z,6.00
2023-04-11T04:26:49.843Z,6.00
2023-04-11T04:29:38.193Z,5.90
2023-04-11T04:32:11.600Z,5.90
2023-04-11T04:34:49.645Z,5.80
2023-04-11T04:37:25.601Z,5.80
2023-04-11T04:40:02.194Z,5.80
2023-04-11T04:42:32.211Z,5.80
2023-04-11T04:45:03.771Z,5.80
2023-04-11T04:47:33.813Z,5.70
2023-04-11T04:50:01.254Z,5.80
2023-04-11T04:52:29.857Z,5.80
2023-04-11T04:54:58.717Z,5.70
2023-04-11T04:57:28.168Z,5.70
2023-04-11T04:59:57.702Z,5.70
2023-04-11T05:02:26.668Z,5.70
2023-04-11T05:04:57.261Z,5.70
2023-04-11T05:07:26.448Z,5.70
2023-04-11T05:09:54.303Z,5.70
2023-04-11T05:12:27.745Z,5.60
2023-04-11T05:15:00.441Z,5.60
2023-04-11T05:17:31.263Z,5.50
2023-04-11T05:19:58.750Z,5.50
2023-04-11T05:22:27.248Z,5.50
2023-04-11T05:24:57.111Z,5.50
2023-04-11T05:27:24.829Z,5.50
2023-04-11T05:29:54.106Z,5.60
2023-04-11T05:32:22.407Z,5.80
2023-04-11T05:34:58.112Z,6.10
2023-04-11T05:37:35.006Z,6.30
2023-04-11T05:40:03.522Z,6.40
2023-04-11T05:42:31.225Z,6.50
2023-04-11T05:45:00.379Z,6.60
2023-04-11T05:47:30.207Z,6.60
2023-04-11T05:49:57.597Z,6.80
2023-04-11T05:52:26.128Z,6.80
2023-04-11T05:54:53.470Z,6.90
2023-04-11T05:57:21.054Z,7.00
2023-04-11T05:59:52.984Z,7.20
2023-04-11T06:02:21.288Z,7.50
2023-04-11T06:04:48.927Z,7.70
2023-04-11T06:07:16.944Z,7.70
2023-04-11T06:09:44.414Z,7.70
2023-04-11T06:12:11.913Z,7.80
2023-04-11T06:14:40.723Z,7.80
2023-04-11T06:17:08.230Z,7.90
2023-04-11T06:19:35.643Z,8.00
2023-04-11T06:22:02.999Z,8.20
2023-04-11T06:24:40.874Z,8.40
2023-04-11T06:27:11.486Z,8.30
2023-04-11T06:29:39.868Z,8.00
2023-04-11T06:32:08.052Z,8.00
2023-04-11T06:34:35.523Z,8.10
2023-04-11T06:37:02.982Z,8.20
2023-04-11T06:39:30.878Z,8.50
2023-04-11T06:41:59.063Z,8.80
2023-04-11T06:44:27.131Z,8.60
2023-04-11T06:46:55.390Z,8.00
2023-04-11T06:49:23.128Z,7.60
2023-04-11T06:51:50.888Z,7.20
2023-04-11T06:54:18.744Z,6.80
2023-04-11T06:56:47.276Z,6.60
2023-04-11T06:59:14.612Z,6.40
2023-04-11T07:01:42.069Z,6.30
2023-04-11T07:04:09.683Z,6.30
2023-04-11T07:06:37.081Z,6.20
2023-04-11T07:09:05.617Z,6.20
2023-04-11T07:11:33.446Z,6.20
2023-04-11T07:14:00.826Z,6.20
2023-04-11T07:16:28.750Z,6.10
2023-04-11T07:18:56.609Z,6.00
2023-04-11T07:21:24.190Z,6.00
2023-04-11T07:23:52.645Z,5.90
2023-04-11T07:26:19.947Z,6.00
2023-04-11T07:28:47.653Z,5.90
2023-04-11T07:31:17.489Z,6.00
2023-04-11T07:33:45.268Z,6.00
2023-04-11T07:36:13.250Z,6.10
2023-04-11T07:38:42.518Z,6.10
2023-04-11T07:41:10.389Z,6.10
2023-04-11T07:43:37.636Z,6.20
2023-04-11T07:46:05.133Z,6.30
2023-04-11T07:48:32.988Z,6.30
2023-04-11T07:51:00.337Z,6.40
2023-04-11T07:53:27.835Z,6.50
2023-04-11T07:55:55.206Z,6.50
2023-04-11T07:58:22.608Z,6.50
2023-04-11T08:00:50.880Z,6.70
2023-04-11T08:03:18.212Z,6.80
2023-04-11T08:05:46.071Z,7.00
2023-04-11T08:08:13.806Z,7.10
2023-04-11T08:10:41.254Z,7.30
2023-04-11T08:13:09.061Z,7.30
2023-04-11T08:15:38.794Z,7.30
2023-04-11T08:18:06.818Z,7.60
2023-04-11T08:20:35.663Z,8.10
2023-04-11T08:23:07.165Z,8.40
2023-04-11T08:25:34.559Z,8.60
2023-04-11T08:28:02.442Z,8.60
2023-04-11T08:30:29.698Z,8.50
2023-04-11T08:32:57.196Z,8.50
2023-04-11T08:35:24.730Z,8.40
2023-04-11T08:37:52.039Z,8.20
2023-04-11T08:40:19.655Z,8.30
2023-04-11T08:42:47.158Z,8.60
2023-04-11T08:45:14.641Z,8.80
2023-04-11T08:47:45.295Z,8.90
2023-04-11T08:50:13.776Z,9.10
2023-04-11T08:52:44.592Z,9.70
2023-04-11T08:55:12.897Z,10.40
2023-04-11T08:57:40.686Z,10.70
2023-04-11T09:00:15.292Z,10.90
2023-04-11T09:05:30.841Z,12.60
2023-04-11T09:08:00.084Z,12.40
2023-04-11T09:10:27.895Z,11.70
2023-04-11T09:12:56.386Z,11.10
2023-04-11T09:15:25.645Z,11.80
2023-04-11T09:17:57.590Z,11.60
2023-04-11T09:20:28.105Z,11.40
2023-04-11T09:22:56.924Z,10.80
2023-04-11T09:25:24.958Z,10.30
2023-04-11T09:28:07.959Z,9.70
2023-04-11T09:30:35.190Z,9.50
2023-04-11T09:33:23.951Z,9.90
2023-04-11T09:35:53.445Z,10.60
2023-04-11T09:38:30.808Z,11.90
2023-04-11T09:40:58.803Z,12.10
2023-04-11T09:43:26.062Z,12.10
2023-04-11T09:46:12.206Z,13.30
2023-04-11T09:48:46.149Z,14.30
2023-04-11T09:51:27.609Z,13.50
2023-04-11T09:54:03.435Z,12.90
2023-04-11T09:56:31.215Z,11.50
2023-04-11T09:59:00.658Z,10.60
2023-04-11T10:01:28.070Z,9.80
2023-04-11T10:03:56.806Z,9.50
2023-04-11T10:06:39.563Z,9.50
2023-04-11T10:09:09.390Z,9.80
2023-04-11T10:11:37.443Z,10.40
2023-04-11T10:14:04.671Z,11.50
2023-04-11T10:16:34.092Z,11.70
2023-04-11T10:19:02.468Z,11.90
2023-04-11T10:21:32.759Z,11.50
2023-04-11T10:24:21.138Z,11.40
2023-04-11T10:26:55.488Z,11.70
2023-04-11T10:29:32.872Z,12.10
2023-04-11T10:32:13.148Z,12.20
2023-04-11T10:35:00.652Z,12.30
2023-04-11T10:37:36.044Z,12.10
2023-04-11T10:40:09.353Z,11.90
2023-04-11T10:42:42.140Z,12.00
2023-04-11T10:45:28.737Z,12.10
2023-04-11T10:48:05.485Z,12.30
2023-04-11T10:50:37.786Z,12.10
2023-04-11T10:53:09.432Z,12.20
2023-04-11T10:55:48.346Z,12.30
2023-04-11T10:58:19.372Z,12.00
2023-04-11T11:00:46.528Z,11.90
2023-04-11T11:03:15.914Z,11.60
2023-04-11T11:05:43.707Z,11.50
2023-04-11T11:08:11.194Z,11.70
2023-04-11T11:10:43.194Z,11.50
2023-04-11T11:13:10.802Z,11.50
2023-04-11T11:15:38.468Z,11.40
2023-04-11T11:18:09.503Z,11.60
2023-04-11T11:20:37.970Z,12.00
2023-04-11T11:23:08.007Z,12.40
2023-04-11T11:25:35.490Z,12.60
2023-04-11T11:28:05.484Z,12.70
2023-04-11T11:30:35.439Z,12.90
2023-04-11T11:33:20.536Z,13.10
2023-04-11T11:35:53.785Z,13.70
2023-04-11T11:38:24.674Z,13.80
2023-04-11T11:40:52.326Z,14.40
2023-04-11T11:43:19.759Z,14.90
2023-04-11T11:45:47.354Z,15.10
2023-04-11T11:48:24.939Z,15.60
2023-04-11T11:50:57.289Z,15.90
2023-04-11T11:53:25.954Z,15.80
2023-04-11T11:55:54.346Z,15.60
2023-04-11T11:58:21.728Z,14.90
2023-04-11T12:00:51.178Z,14.00
2023-04-11T12:03:23.531Z,13.40
2023-04-11T12:05:53.413Z,12.80
2023-04-11T12:08:22.311Z,12.20
2023-04-11T12:10:51.133Z,11.80
2023-04-11T12:13:21.066Z,11.50
2023-04-11T12:15:54.512Z,11.20
2023-04-11T12:18:23.428Z,10.70
2023-04-11T12:20:51.378Z,10.20
2023-04-11T12:23:18.989Z,10.00
2023-04-11T12:25:46.744Z,9.70
2023-04-11T12:28:14.367Z,9.30
2023-04-11T12:30:41.666Z,8.60
2023-04-11T12:33:09.330Z,8.30
2023-04-11T12:35:36.905Z,7.90
2023-04-11T12:38:04.245Z,7.80
2023-04-11T12:40:31.463Z,7.70
2023-04-11T12:42:59.169Z,7.60
2023-04-11T12:45:27.052Z,7.60
2023-04-11T12:47:54.934Z,7.80
2023-04-11T12:50:25.450Z,8.10
2023-04-11T12:52:53.030Z,8.50
2023-04-11T12:55:21.453Z,8.80
2023-04-11T12:57:49.091Z,9.20
2023-04-11T13:00:17.058Z,9.50
2023-04-11T13:02:45.600Z,10.30
2023-04-11T13:05:15.060Z,10.50
2023-04-11T13:07:44.669Z,10.30
2023-04-11T13:10:13.636Z,10.00
2023-04-11T13:12:44.302Z,10.00
2023-04-11T13:15:13.119Z,10.10
2023-04-11T13:17:40.473Z,10.30
2023-04-11T13:20:10.437Z,10.20
2023-04-11T13:22:39.492Z,10.00
2023-04-11T13:25:08.202Z,9.90
2023-04-11T13:27:36.106Z,9.80
2023-04-11T13:30:04.866Z,9.90
2023-04-11T13:32:32.401Z,9.80
2023-04-11T13:34:59.738Z,9.50
2023-04-11T13:37:28.116Z,9.10
2023-04-11T13:40:20.562Z,8.90
2023-04-11T13:42:47.741Z,9.10
2023-04-11T13:45:14.960Z,9.50
2023-04-11T13:47:42.166Z,9.80
2023-04-11T13:50:09.610Z,10.10
2023-04-11T13:52:37.477Z,10.20
2023-04-11T13:55:06.417Z,10.30
2023-04-11T13:57:33.634Z,10.60
2023-04-11T14:00:01.045Z,10.70
2023-04-11T14:02:32.213Z,10.80
2023-04-11T14:04:59.468Z,10.90
2023-04-11T14:07:26.720Z,11.00
2023-04-11T14:09:54.431Z,11.20
2023-04-11T14:12:22.572Z,11.30
2023-04-11T14:14:50.545Z,11.40
2023-04-11T14:17:17.696Z,11.20
2023-04-11T14:19:44.866Z,10.80
2023-04-11T14:22:12.127Z,10.60
2023-04-11T14:24:39.504Z,10.10
2023-04-11T14:27:06.689Z,9.50
2023-04-11T14:29:34.585Z,9.10
2023-04-11T14:32:02.018Z,8.70
2023-04-11T14:34:29.604Z,8.50
2023-04-11T14:36:56.793Z,8.20
2023-04-11T14:39:24.203Z,8.10
2023-04-11T14:41:51.887Z,7.70
2023-04-11T14:44:19.601Z,7.50
2023-04-11T14:46:46.765Z,7.30
2023-04-11T14:49:13.908Z,7.20
2023-04-11T14:51:41.574Z,7.10
2023-04-11T14:54:08.769Z,6.90
2023-04-11T14:56:36.424Z,6.80
2023-04-11T14:59:03.669Z,6.70
2023-04-11T15:01:31.609Z,6.70
2023-04-11T15:03:59.064Z,6.80
2023-04-11T15:06:26.522Z,7.10
2023-04-11T15:08:54.515Z,7.80
2023-04-11T15:11:21.667Z,8.20
2023-04-11T15:13:49.770Z,8.60
2023-04-11T15:16:18.797Z,8.70
2023-04-11T15:18:47.664Z,8.60
2023-04-11T15:21:15.489Z,8.10
2023-04-11T15:23:43.159Z,7.70
2023-04-11T15:26:10.403Z,7.30
2023-04-11T15:28:39.356Z,6.90
2023-04-11T15:31:09.011Z,6.50
2023-04-11T15:33:38.136Z,6.30
2023-04-11T15:36:06.035Z,6.20
2023-04-11T15:38:35.274Z,6.20
2023-04-11T15:41:02.805Z,6.30
2023-04-11T15:43:32.008Z,6.90
2023-04-11T15:46:01.464Z,8.10
2023-04-11T15:48:28.714Z,8.80
2023-04-11T15:50:56.041Z,8.70
2023-04-11T15:53:23.206Z,8.70
2023-04-11T15:55:51.238Z,8.60
2023-04-11T15:58:18.543Z,8.30
2023-04-11T16:00:46.852Z,7.90
2023-04-11T16:03:14.258Z,7.90
2023-04-11T16:05:43.151Z,7.90
2023-04-11T16:08:10.922Z,7.90
2023-04-11T16:10:38.188Z,7.70
2023-04-11T16:13:05.510Z,7.40
2023-04-11T16:15:33.233Z,7.30
2023-04-11T16:18:00.777Z,7.20
2023-04-11T16:20:28.163Z,7.30
2023-04-11T16:22:55.905Z,7.20
2023-04-11T16:25:23.324Z,7.10
2023-04-11T16:27:51.993Z,7.00
2023-04-11T16:30:19.549Z,6.90
2023-04-11T16:32:47.065Z,6.70
2023-04-11T16:35:14.348Z,6.60
2023-04-11T16:37:42.350Z,6.50
2023-04-11T16:40:12.632Z,6.50
2023-04-11T16:42:40.884Z,6.70
2023-04-11T16:45:10.424Z,7.10
2023-04-11T16:47:38.146Z,7.50
2023-04-11T16:50:06.105Z,7.80
2023-04-11T16:52:33.906Z,7.60
2023-04-11T16:55:02.797Z,7.30
2023-04-11T16:57:32.998Z,7.20
2023-04-11T17:00:00.763Z,6.90
2023-04-11T17:02:28.346Z,6.70
2023-04-11T17:04:55.704Z,6.50
2023-04-11T17:07:23.091Z,6.30
2023-04-11T17:09:50.294Z,6.30
2023-04-11T17:12:17.579Z,6.30
2023-04-11T17:14:45.910Z,6.20
2023-04-11T17:17:13.283Z,6.20
2023-04-11T17:19:40.616Z,6.20
2023-04-11T17:22:09.002Z,6.10
2023-04-11T17:24:36.542Z,6.10
2023-04-11T17:27:04.055Z,6.00
2023-04-11T17:29:32.391Z,6.00
2023-04-11T17:31:59.727Z,6.10
2023-04-11T17:34:27.511Z,6.20
2023-04-11T17:36:56.376Z,6.20
2023-04-11T17:39:23.690Z,6.00
2023-04-11T17:41:51.139Z,5.80
2023-04-11T17:44:19.288Z,5.60
2023-04-11T17:46:47.571Z,5.40
2023-04-11T17:49:15.023Z,5.20
2023-04-11T17:51:49.026Z,5.10
2023-04-11T17:54:19.799Z,5.10
2023-04-11T17:56:47.118Z,5.10
2023-04-11T17:59:17.014Z,5.20
2023-04-11T18:01:46.951Z,5.20
2023-04-11T18:04:15.102Z,5.30
2023-04-11T18:06:42.822Z,5.40
2023-04-11T18:09:10.742Z,5.40
2023-04-11T18:11:38.057Z,5.50
2023-04-11T18:14:05.406Z,5.50
2023-04-11T18:16:32.851Z,5.50
2023-04-11T18:19:00.925Z,5.40
2023-04-11T18:21:28.535Z,5.30
2023-04-11T18:23:56.289Z,5.20
2023-04-11T18:26:23.847Z,5.10
2023-04-11T18:28:51.180Z,5.00
2023-04-11T18:31:18.509Z,4.70
2023-04-11T18:33:47.452Z,4.50
2023-04-11T18:36:15.642Z,4.30
2023-04-11T18:38:43.917Z,4.10
2023-04-11T18:41:11.291Z,4.00
2023-04-11T18:43:39.216Z,3.80
2023-04-11T18:46:07.858Z,3.90
2023-04-11T18:48:35.463Z,4.00
2023-04-11T18:51:04.809Z,4.20
2023-04-11T18:53:32.376Z,4.30
2023-04-11T18:56:02.924Z,4.40
2023-04-11T18:58:32.612Z,4.50
2023-04-11T19:01:14.017Z,4.50
2023-04-11T19:03:42.656Z,4.50
2023-04-11T19:06:10.239Z,4.40
2023-04-11T19:08:37.624Z,4.10
2023-04-11T19:11:06.004Z,4.00
2023-04-11T19:13:33.598Z,3.80
2023-04-11T19:16:01.531Z,3.70
2023-04-11T19:18:29.641Z,3.60
2023-04-11T19:20:57.498Z,3.50
2023-04-11T19:23:25.534Z,3.50
2023-04-11T19:25:52.888Z,3.40
2023-04-11T19:28:21.268Z,3.20
2023-04-11T19:30:48.675Z,3.20
2023-04-11T19:33:16.500Z,3.20
2023-04-11T19:35:44.613Z,3.20
2023-04-11T19:38:12.476Z,3.10
2023-04-11T19:40:40.110Z,3.00
2023-04-11T19:43:07.550Z,3.00
2023-04-11T19:45:34.891Z,2.90
2023-04-11T19:48:02.290Z,2.80
2023-04-11T19:50:29.863Z,2.70
2023-04-11T19:52:57.203Z,2.60
2023-04-11T19:55:24.666Z,2.50
2023-04-11T19:57:52.062Z,2.50
2023-04-11T20:00:19.442Z,2.60
2023-04-11T20:02:48.308Z,2.70
2023-04-11T20:05:19.778Z,2.70
2023-04-11T20:07:47.744Z,2.70
2023-04-11T20:10:16.276Z,2.70
2023-04-11T20:12:43.666Z,2.80
2023-04-11T20:15:11.386Z,2.90
2023-04-11T20:17:38.871Z,2.90
2023-04-11T20:20:09.103Z,3.00
2023-04-11T20:22:38.130Z,3.00
2023-04-11T20:25:07.408Z,3.00
2023-04-11T20:27:34.854Z,3.10
2023-04-11T20:30:12.950Z,3.10
2023-04-11T20:32:41.105Z,3.10
2023-04-11T20:35:09.822Z,3.10
2023-04-11T20:37:39.901Z,3.10
2023-04-11T20:40:09.746Z,3.00
2023-04-11T20:42:42.672Z,3.00
2023-04-11T20:45:12.564Z,2.90
2023-04-11T20:47:41.158Z,2.90
2023-04-11T20:50:10.477Z,3.00
2023-04-11T20:52:38.483Z,3.00
2023-04-11T20:55:06.219Z,3.00
2023-04-11T20:57:33.590Z,3.00
2023-04-11T21:00:07.236Z,2.90
2023-04-11T21:02:34.572Z,2.90
2023-04-11T21:05:01.889Z,2.90
2023-04-11T21:07:29.171Z,2.90
2023-04-11T21:09:56.383Z,2.80
2023-04-11T21:12:23.593Z,2.80
2023-04-11T21:14:50.759Z,2.90
2023-04-11T21:17:18.102Z,3.00
2023-04-11T21:19:45.814Z,3.00
2023-04-11T21:22:13.045Z,3.00
2023-04-11T21:24:40.328Z,2.90
2023-04-11T21:27:07.605Z,2.90
2023-04-11T21:29:34.763Z,2.90
2023-04-11T21:32:01.942Z,2.90
2023-04-11T21:34:29.234Z,2.90
2023-04-11T21:36:57.416Z,2.90
2023-04-11T21:39:24.651Z,2.80
2023-04-11T21:41:52.071Z,2.80
2023-04-11T21:44:19.270Z,2.70
2023-04-11T21:46:46.441Z,2.60
2023-04-11T21:49:13.794Z,2.60
2023-04-11T21:51:41.297Z,2.60
2023-04-11T21:54:08.478Z,2.50
2023-04-11T21:56:36.155Z,2.50
2023-04-11T21:59:03.346Z,2.40
2023-04-11T22:01:30.827Z,2.40
2023-04-11T22:03:59.443Z,2.30
2023-04-11T22:06:30.137Z,2.30
2023-04-11T22:08:58.165Z,2.20
2023-04-11T22:11:25.579Z,2.20
2023-04-11T22:13:52.816Z,2.20
2023-04-11T22:16:26.219Z,2.20
2023-04-11T22:18:54.299Z,2.30
2023-04-11T22:21:21.784Z,2.30
2023-04-11T22:23:54.742Z,2.20
2023-04-11T22:26:49.110Z,2.20
2023-04-11T22:29:18.292Z,2.30
2023-04-11T22:31:47.375Z,2.30
2023-04-11T22:34:14.586Z,2.20
2023-04-11T22:36:42.072Z,2.20
2023-04-11T22:39:10.261Z,2.10
2023-04-11T22:41:38.607Z,2.10
2023-04-11T22:44:06.415Z,2.00
2023-04-11T22:46:39.139Z,2.00
2023-04-11T22:49:09.507Z,2.00
2023-04-11T22:51:38.356Z,1.90
2023-04-11T22:54:05.681Z,1.90
2023-04-11T22:56:32.863Z,1.90
2023-04-11T22:59:00.150Z,1.80
2023-04-11T23:01:28.084Z,1.80
2023-04-11T23:03:56.211Z,1.70
2023-04-11T23:06:23.762Z,1.70
2023-04-11T23:08:53.811Z,1.70
2023-04-11T23:11:21.263Z,1.60
2023-04-11T23:13:48.827Z,1.60
2023-04-11T23:16:16.561Z,1.60
2023-04-11T23:18:43.780Z,1.60
2023-04-11T23:21:15.174Z,1.50
2023-04-11T23:23:42.393Z,1.50
2023-04-11T23:26:17.642Z,1.50
2023-04-11T23:28:46.231Z,1.40
2023-04-11T23:31:13.855Z,1.40
2023-04-11T23:33:42.557Z,1.40
2023-04-11T23:36:11.859Z,1.40
2023-04-11T23:38:39.278Z,1.40
2023-04-11T23:41:06.830Z,1.30
2023-04-11T23:43:34.058Z,1.40
2023-04-11T23:46:01.904Z,1.40
2023-04-11T23:48:29.429Z,1.40
2023-04-11T23:50:57.921Z,1.50
2023-04-11T23:53:25.232Z,1.50
2023-04-11T23:55:53.455Z,1.40
2023-04-11T23:58:20.726Z,1.40
